Climatologie pour Saint-Brevin les Pins
Jour • Résumé pour février 25, 2017 Système :  Métrique    Anglais   Mixte
« - 1 jour
+ 1 jour »
Jour Semaine Mois Année Personnalisé
  Maximum : Minimum : Moyenne :
Température sous abri : -17.8 °C -16.5 °C -13.8 °C
Point de rosée : -17.8 °C -16.7 °C -14.9 °C
Humidité : Humidity % 70 % 88 %
Vitesse du vent : 0 km/h 0 km/h 11.4 km/h
Rafale : 0 km/h - -
Direction :- - South
Pression : 0 hPa 34428.8 hPa -
Précipitations : 0 mm    
Historical Graphs
 
 
Tableau de données pour février 25, 2017
Heure Tempé Pt rosée Pression Vent Vitesse Rafale Humidité Taux pluie (/hr) Soleil
-17.8 °C -17.8 °C 0 hPa Calm     Humidity % 0 mm SolarRadiationWatts/m^2 W/m2 Conditions
00:00 -16.2 °C -16.5 °C 34635.4 hPa Calm   5.1 km/h 96 % 0 mm 0 W/m2
00:10 -16.1 °C -16.4 °C 34635.4 hPa SSW 2.6 km/h 7.7 km/h 96 % 0 mm 0 W/m2
00:15 -16 °C -16.3 °C 34635.4 hPa SSW 2.6 km/h 7.7 km/h 96 % 0 mm 0 W/m2
00:20 -15.9 °C -16.2 °C 34635.4 hPa SSW 2.6 km/h 5.1 km/h 96 % 0 mm 0 W/m2
00:25 -15.9 °C -16.3 °C 34635.4 hPa SSW 2.6 km/h 5.1 km/h 96 % 0 mm 0 W/m2
00:30 -16 °C -16.3 °C 34635.4 hPa SSW 5.1 km/h 7.7 km/h 96 % 0 mm 0 W/m2
00:35 -16 °C -16.3 °C 34635.4 hPa Calm   7.7 km/h 96 % 0 mm 0 W/m2
00:40 -15.9 °C -16.2 °C 34635.4 hPa Calm   5.1 km/h 97 % 0 mm 0 W/m2
00:45 -15.8 °C -16.1 °C 34635.4 hPa SSW 5.1 km/h 5.1 km/h 97 % 0 mm 0 W/m2
00:55 -16.2 °C -16.5 °C 34635.4 hPa Calm   5.1 km/h 96 % 0 mm 0 W/m2
01:00 -16.3 °C -16.6 °C 34635.4 hPa Calm     96 % 0 mm 0 W/m2
01:05 -16.2 °C -16.5 °C 34635.4 hPa Calm   2.6 km/h 97 % 0 mm 0 W/m2
01:10 -16.3 °C -16.7 °C 34635.4 hPa SSW 5.1 km/h 5.1 km/h 96 % 0 mm 0 W/m2
01:15 -16.3 °C -16.5 °C 34635.4 hPa Calm   5.1 km/h 97 % 0 mm 0 W/m2
01:20 -16.3 °C -16.6 °C 34635.4 hPa Calm   5.1 km/h 97 % 0 mm 0 W/m2
01:25 -16.3 °C -16.6 °C 34635.4 hPa Calm   2.6 km/h 97 % 0 mm 0 W/m2
01:30 -16.3 °C -16.6 °C 34625.2 hPa Calm   2.6 km/h 97 % 0 mm 0 W/m2
01:40 -16.3 °C -16.6 °C 34625.2 hPa SSW 7.7 km/h 10.3 km/h 97 % 0 mm 0 W/m2
01:45 -16.2 °C -16.4 °C 34625.2 hPa SSW 2.6 km/h 10.3 km/h 97 % 0 mm 0 W/m2
01:50 -16 °C -16.3 °C 34625.2 hPa SSW 2.6 km/h 7.7 km/h 97 % 0 mm 0 W/m2
01:55 -16 °C -16.3 °C 34625.2 hPa SSW 2.6 km/h 7.7 km/h 97 % 0 mm 0 W/m2
02:00 -16 °C -16.3 °C 34611.7 hPa SSW 5.1 km/h 7.7 km/h 97 % 0 mm 0 W/m2
02:05 -16.1 °C -16.3 °C 34611.7 hPa SSW 2.6 km/h 7.7 km/h 97 % 0 mm 0 W/m2
02:10 -16.2 °C -16.4 °C 34611.7 hPa SSW 5.1 km/h 7.7 km/h 97 % 0 mm 0 W/m2
02:15 -16.1 °C -16.3 °C 34611.7 hPa Calm   7.7 km/h 97 % 0 mm 0 W/m2
02:25 -16.2 °C -16.4 °C 34611.7 hPa Calm   2.6 km/h 97 % 0 mm 0 W/m2
02:30 -16.3 °C -16.5 °C 34611.7 hPa SSW 2.6 km/h 5.1 km/h 97 % 0 mm 0 W/m2
02:35 -16.3 °C -16.5 °C 34611.7 hPa Calm   5.1 km/h 97 % 0 mm 0 W/m2
02:40 -16.3 °C -16.6 °C 34601.5 hPa SSW 2.6 km/h 5.1 km/h 97 % 0 mm 0 W/m2
02:45 -16.3 °C -16.6 °C 34601.5 hPa Calm   7.7 km/h 97 % 0 mm 0 W/m2
02:50 -16.4 °C -16.6 °C 34601.5 hPa SSW 5.1 km/h 7.7 km/h 97 % 0 mm 0 W/m2
02:55 -16.3 °C -16.6 °C 34601.5 hPa SSW 5.1 km/h 7.7 km/h 97 % 0 mm 0 W/m2
03:00 -16.3 °C -16.6 °C 34601.5 hPa Calm   7.7 km/h 97 % 0 mm 0 W/m2
03:10 -16.2 °C -16.4 °C 34601.5 hPa Calm   5.1 km/h 98 % 0 mm 0 W/m2
03:15 -16.2 °C -16.5 °C 34601.5 hPa SSW 2.6 km/h 2.6 km/h 97 % 0 mm 0 W/m2
03:20 -16.3 °C -16.6 °C 34601.5 hPa Calm   5.1 km/h 97 % 0 mm 0 W/m2
03:25 -16.3 °C -16.6 °C 34601.5 hPa SSW 5.1 km/h 5.1 km/h 97 % 0 mm 0 W/m2
03:30 -16.4 °C -16.6 °C 34591.4 hPa SSW 5.1 km/h 7.7 km/h 97 % 0 mm 0 W/m2
03:40 -16.3 °C -16.6 °C 34591.4 hPa SSE 7.7 km/h 10.3 km/h 97 % 0 mm 0 W/m2
03:45 -16.3 °C -16.5 °C 34591.4 hPa SSE 5.1 km/h 7.7 km/h 97 % 0 mm 0 W/m2
03:55 -16.2 °C -16.4 °C 34591.4 hPa SSE 5.1 km/h 7.7 km/h 98 % 0 mm 0 W/m2
04:00 -16.3 °C -16.4 °C 34577.8 hPa SSE 2.6 km/h 7.7 km/h 98 % 0 mm 0 W/m2
04:05 -16.2 °C -16.5 °C 34577.8 hPa SSE 5.1 km/h 7.7 km/h 97 % 0 mm 0 W/m2
04:10 -16.2 °C -16.3 °C 34577.8 hPa SSE 2.6 km/h 7.7 km/h 98 % 0 mm 0 W/m2
04:20 -16.2 °C -16.3 °C 34577.8 hPa SSE 7.7 km/h 7.7 km/h 98 % 0 mm 0 W/m2
04:25 -16.2 °C -16.3 °C 34577.8 hPa Calm   7.7 km/h 98 % 0 mm 0 W/m2
04:30 -16.2 °C -16.4 °C 34577.8 hPa SSE 5.1 km/h 7.7 km/h 98 % 0 mm 0 W/m2
04:40 -16.3 °C -16.4 °C 34577.8 hPa SSE 5.1 km/h 7.7 km/h 98 % 0 mm 0 W/m2
04:45 -16.3 °C -16.5 °C 34567.7 hPa Calm   7.7 km/h 98 % 0 mm 0 W/m2
04:50 -16.4 °C -16.6 °C 34577.8 hPa SSE 2.6 km/h 5.1 km/h 98 % 0 mm 0 W/m2
04:55 -16.3 °C -16.5 °C 34577.8 hPa SSE 5.1 km/h 7.7 km/h 98 % 0 mm 0 W/m2
05:00 -16.3 °C -16.5 °C 34577.8 hPa SSE 5.1 km/h 7.7 km/h 98 % 0 mm 0 W/m2
05:05 -16.2 °C -16.4 °C 34577.8 hPa SSE 7.7 km/h 7.7 km/h 98 % 0 mm 0 W/m2
05:10 -16.2 °C -16.4 °C 34577.8 hPa Calm   7.7 km/h 98 % 0 mm 0 W/m2
05:15 -16.3 °C -16.4 °C 34577.8 hPa SSE 5.1 km/h 7.7 km/h 98 % 0 mm 0 W/m2
05:25 -16.3 °C -16.4 °C 34577.8 hPa SSE 5.1 km/h 5.1 km/h 98 % 0 mm 0 W/m2
05:30 -16.3 °C -16.4 °C 34577.8 hPa Calm   5.1 km/h 98 % 0 mm 0 W/m2
05:35 -16.3 °C -16.5 °C 34577.8 hPa SSE 5.1 km/h 7.7 km/h 98 % 0 mm 0 W/m2
05:40 -16.4 °C -16.6 °C 34577.8 hPa SSE 5.1 km/h 7.7 km/h 98 % 0 mm 0 W/m2
05:45 -16.4 °C -16.6 °C 34577.8 hPa Calm   7.7 km/h 98 % 0 mm 0 W/m2
05:50 -16.4 °C -16.6 °C 34577.8 hPa SSE 7.7 km/h 7.7 km/h 98 % 0 mm 0 W/m2
05:55 -16.4 °C -16.6 °C 34577.8 hPa Calm   7.7 km/h 98 % 0 mm 0 W/m2
06:00 -16.4 °C -16.6 °C 34577.8 hPa SSE 5.1 km/h 7.7 km/h 98 % 0 mm 0 W/m2
06:10 -16.4 °C -16.6 °C 34577.8 hPa Calm   5.1 km/h 98 % 0 mm 0 W/m2
06:15 -16.3 °C -16.5 °C 34577.8 hPa Calm   7.7 km/h 98 % 0 mm 0 W/m2
06:20 -16.3 °C -16.5 °C 34577.8 hPa SSE 2.6 km/h 7.7 km/h 98 % 0 mm 0 W/m2
06:25 -16.4 °C -16.6 °C 34577.8 hPa SSE 5.1 km/h 7.7 km/h 98 % 0 mm 0 W/m2
06:30 -16.3 °C -16.5 °C 34577.8 hPa SSE 2.6 km/h 7.7 km/h 98 % 0 mm 0 W/m2
06:35 -16.4 °C -16.6 °C 34577.8 hPa SSE 2.6 km/h 7.7 km/h 98 % 0 mm 0 W/m2
06:40 -16.4 °C -16.6 °C 34577.8 hPa SSE 5.1 km/h 7.7 km/h 98 % 0 mm 0 W/m2
06:45 -16.5 °C -16.7 °C 34577.8 hPa SSE 5.1 km/h 7.7 km/h 98 % 0 mm 0 W/m2
06:55 -16.3 °C -16.5 °C 34577.8 hPa SSE 2.6 km/h 7.7 km/h 98 % 0 mm 0 W/m2
07:00 -16.3 °C -16.5 °C 34577.8 hPa SSE 5.1 km/h 7.7 km/h 98 % 0 mm 0 W/m2
07:05 -16.3 °C -16.5 °C 34577.8 hPa SSE 5.1 km/h 7.7 km/h 98 % 0 mm 0 W/m2
07:10 -16.3 °C -16.5 °C 34577.8 hPa SSE 5.1 km/h 7.7 km/h 98 % 0 mm 0 W/m2
07:15 -16.3 °C -16.4 °C 34577.8 hPa Calm   7.7 km/h 98 % 0 mm 0 W/m2
07:20 -16.3 °C -16.4 °C 34591.4 hPa SSE 5.1 km/h 7.7 km/h 98 % 0 mm 0 W/m2
07:25 -16.3 °C -16.4 °C 34577.8 hPa Calm   7.7 km/h 98 % 0 mm 0 W/m2
07:30 -16.3 °C -16.4 °C 34577.8 hPa SE 5.1 km/h 7.7 km/h 98 % 0 mm 0 W/m2
07:40 -16.1 °C -16.2 °C 34577.8 hPa SSE 10.3 km/h 12.9 km/h 98 % 0 mm 0 W/m2
07:45 -16.1 °C -16.2 °C 34577.8 hPa SSE 7.7 km/h 10.3 km/h 98 % 0 mm 5 W/m2
07:50 -16.1 °C -16.2 °C 34577.8 hPa SE 10.3 km/h 12.9 km/h 98 % 0 mm 7 W/m2
07:55 -16 °C -16.2 °C 34577.8 hPa SSE 2.6 km/h 12.9 km/h 98 % 0 mm 9 W/m2
08:00 -16 °C -16.2 °C 34577.8 hPa SE 5.1 km/h 12.9 km/h 98 % 0 mm 7 W/m2
08:05 -15.9 °C -15.9 °C 34591.4 hPa SE 7.7 km/h 12.9 km/h 99 % 0 mm 11 W/m2
08:10 -15.7 °C -15.9 °C 34577.8 hPa SSE 7.7 km/h 10.3 km/h 98 % 0 mm 14 W/m2
08:15 -15.6 °C -15.8 °C 34591.4 hPa SSE 7.7 km/h 15.6 km/h 98 % 0 mm 19 W/m2
08:25 -15.2 °C -15.3 °C 34591.4 hPa SSE 7.7 km/h 15.6 km/h 99 % 0 mm 25 W/m2
08:30 -15.1 °C -15.2 °C 34577.8 hPa SSE 5.1 km/h 15.6 km/h 99 % 0 mm 30 W/m2
08:35 -14.9 °C -15.1 °C 34591.4 hPa SSE 15.6 km/h 15.6 km/h 99 % 0 mm 42 W/m2
08:40 -14.9 °C -15 °C 34577.8 hPa SSE 12.9 km/h 15.6 km/h 99 % 0 mm 46 W/m2
08:45 -14.8 °C -14.9 °C 34591.4 hPa SSE 2.6 km/h 15.6 km/h 99 % 0 mm 51 W/m2
08:50 -14.8 °C -14.9 °C 34591.4 hPa SSE 7.7 km/h 15.6 km/h 99 % 0 mm 53 W/m2
08:55 -14.8 °C -14.9 °C 34591.4 hPa SSE 2.6 km/h 10.3 km/h 99 % 0 mm 62 W/m2
09:00 -14.7 °C -14.8 °C 34591.4 hPa South 10.3 km/h 18.2 km/h 99 % 0 mm 63 W/m2
09:10 -14.6 °C -14.6 °C 34577.8 hPa South 10.3 km/h 23.3 km/h 99 % 0 mm 67 W/m2
09:15 -14.5 °C -14.6 °C 34577.8 hPa SSE 10.3 km/h 23.3 km/h 99 % 0 mm 70 W/m2
09:20 -14.4 °C -14.5 °C 34577.8 hPa SSE 7.7 km/h 18.2 km/h 99 % 0 mm 76 W/m2
09:25 -14.3 °C -14.4 °C 34591.4 hPa SSW 12.9 km/h 20.8 km/h 99 % 0 mm 77 W/m2
09:30 -14.2 °C -14.3 °C 34577.8 hPa South 15.6 km/h 20.8 km/h 99 % 0 mm 81 W/m2
09:35 -14.1 °C -14.2 °C 34591.4 hPa South 10.3 km/h 18.2 km/h 99 % 0 mm 77 W/m2
09:40 -14 °C -14.1 °C 34591.4 hPa SSE 12.9 km/h 20.8 km/h 99 % 0 mm 72 W/m2
09:45 -13.9 °C -14.1 °C 34591.4 hPa South 10.3 km/h 20.8 km/h 99 % 0 mm 69 W/m2
09:55 -13.8 °C -13.9 °C 34577.8 hPa SSE 12.9 km/h 20.8 km/h 99 % 0 mm 72 W/m2
10:00 -13.8 °C -13.8 °C 34591.4 hPa South 10.3 km/h 20.8 km/h 99 % 0 mm 79 W/m2
10:05 -13.7 °C -13.8 °C 34591.4 hPa SSE 23.3 km/h 23.3 km/h 99 % 0 mm 204 W/m2
10:10 -13.6 °C -13.7 °C 34591.4 hPa South 10.3 km/h 23.3 km/h 99 % 0 mm 311 W/m2
10:15 -13.4 °C -13.5 °C 34591.4 hPa SSW 10.3 km/h 23.3 km/h 99 % 0 mm 338 W/m2
10:20 -13.3 °C -13.3 °C 34591.4 hPa SSE 10.3 km/h 23.3 km/h 99 % 0 mm 295 W/m2
10:25 -13.2 °C -13.4 °C 34591.4 hPa South 15.6 km/h 23.3 km/h 98 % 0 mm 258 W/m2
10:30 -13.1 °C -13.3 °C 34591.4 hPa South 23.3 km/h 23.3 km/h 98 % 0 mm 362 W/m2
10:40 -12.7 °C -13 °C 34601.5 hPa SSW 10.3 km/h 28.5 km/h 97 % 0 mm 346 W/m2
10:45 -12.7 °C -13.1 °C 34601.5 hPa South 5.1 km/h 31.1 km/h 95 % 0 mm 411 W/m2
10:50 -12.6 °C -13.2 °C 34601.5 hPa South 18.2 km/h 31.1 km/h 93 % 0 mm 301 W/m2
10:55 -12.6 °C -13.2 °C 34601.5 hPa South 12.9 km/h 25.9 km/h 92 % 0 mm 369 W/m2
11:00 -12.4 °C -13.3 °C 34601.5 hPa SSW 15.6 km/h 28.5 km/h 90 % 0 mm 366 W/m2
11:05 -12.4 °C -13.4 °C 34591.4 hPa SSW 31.1 km/h 33.6 km/h 89 % 0 mm 371 W/m2
11:10 -12.4 °C -13.5 °C 34591.4 hPa SW 31.1 km/h 33.6 km/h 88 % 0 mm 352 W/m2
11:15 -12.4 °C -13.4 °C 34591.4 hPa South 10.3 km/h 36.2 km/h 88 % 0 mm 413 W/m2
11:25 -12.2 °C -13.4 °C 34591.4 hPa South 12.9 km/h 33.6 km/h 86 % 0 mm 424 W/m2
11:30 -12.2 °C -13.4 °C 34591.4 hPa SSW 20.8 km/h 33.6 km/h 86 % 0 mm 448 W/m2
11:35 -12.1 °C -13.4 °C 34591.4 hPa SSW 28.5 km/h 38.8 km/h 86 % 0 mm 459 W/m2
11:40 -11.9 °C -13.2 °C 34591.4 hPa SW 7.7 km/h 38.8 km/h 86 % 0 mm 513 W/m2
11:45 -11.8 °C -13.3 °C 34591.4 hPa SSW 12.9 km/h 36.2 km/h 84 % 0 mm 478 W/m2
11:50 -11.8 °C -13.2 °C 34591.4 hPa SSW 23.3 km/h 36.2 km/h 84 % 0 mm 478 W/m2
11:55 -11.8 °C -13.3 °C 34577.8 hPa SSW 23.3 km/h 36.2 km/h 84 % 0 mm 471 W/m2
12:00 -11.8 °C -13.2 °C 34577.8 hPa West 33.6 km/h 44.1 km/h 84 % 0 mm 388 W/m2
12:10 -11.8 °C -13.3 °C 34577.8 hPa SW 15.6 km/h 38.8 km/h 83 % 0 mm 399 W/m2
12:15 -11.8 °C -13.3 °C 34577.8 hPa South 12.9 km/h 38.8 km/h 83 % 0 mm 432 W/m2
12:20 -11.7 °C -13.4 °C 34577.8 hPa SW 15.6 km/h 41.4 km/h 81 % 0 mm 427 W/m2
12:25 -11.7 °C -13.4 °C 34567.7 hPa SSW 7.7 km/h 41.4 km/h 81 % 0 mm 504 W/m2
12:30 -11.7 °C -13.5 °C 34567.7 hPa SW 12.9 km/h 38.8 km/h 80 % 0 mm 483 W/m2
12:35 -11.6 °C -13.6 °C 34567.7 hPa WSW 20.8 km/h 38.8 km/h 79 % 0 mm 492 W/m2
12:40 -11.4 °C -13.2 °C 34567.7 hPa SSW 12.9 km/h 36.2 km/h 80 % 0 mm 517 W/m2
12:45 -11.4 °C -13.6 °C 34567.7 hPa South 20.8 km/h 44.1 km/h 77 % 0 mm 436 W/m2
12:55 -11.4 °C -13.6 °C 34554.1 hPa SSW 15.6 km/h 46.7 km/h 77 % 0 mm 536 W/m2
13:00 -11.4 °C -13.7 °C 34554.1 hPa SSW 25.9 km/h 46.7 km/h 76 % 0 mm 432 W/m2
13:05 -11.4 °C -13.7 °C 34554.1 hPa SSE 31.1 km/h 46.7 km/h 76 % 0 mm 429 W/m2
13:10 -11.4 °C -13.6 °C 34554.1 hPa SSW 20.8 km/h 46.7 km/h 77 % 0 mm 497 W/m2
13:15 -11.5 °C -13.8 °C 34554.1 hPa SSW 23.3 km/h 51.8 km/h 75 % 0 mm 457 W/m2
13:20 -11.5 °C -13.7 °C 34544 hPa SSW 25.9 km/h 51.8 km/h 76 % 0 mm 378 W/m2
13:25 -11.6 °C -13.8 °C 34544 hPa SSW 25.9 km/h 49.2 km/h 77 % 0 mm 355 W/m2
13:30 -11.6 °C -13.7 °C 34544 hPa SSW 12.9 km/h 46.7 km/h 77 % 0 mm 420 W/m2
13:40 -11.4 °C -13.6 °C 34544 hPa SW 18.2 km/h 33.6 km/h 77 % 0 mm 497 W/m2
13:45 -11.3 °C -13.6 °C 34544 hPa SSW 18.2 km/h 44.1 km/h 76 % 0 mm 485 W/m2
13:50 -11.3 °C -13.5 °C 34544 hPa South 36.2 km/h 46.7 km/h 77 % 0 mm 580 W/m2
13:55 -11.3 °C -13.4 °C 34544 hPa SSW 10.3 km/h 46.7 km/h 77 % 0 mm 570 W/m2
14:00 -11.2 °C -13.4 °C 34544 hPa SSW 20.8 km/h 44.1 km/h 76 % 0 mm 490 W/m2
14:05 -11.4 °C -13.7 °C 34533.8 hPa SSW 25.9 km/h 44.1 km/h 76 % 0 mm 485 W/m2
14:10 -11.4 °C -13.6 °C 34533.8 hPa South 20.8 km/h 44.1 km/h 77 % 0 mm 380 W/m2
14:15 -11.4 °C -13.6 °C 34533.8 hPa SSW 25.9 km/h 41.4 km/h 77 % 0 mm 469 W/m2
14:25 -11.3 °C -13.6 °C 34520.3 hPa SSW 18.2 km/h 44.1 km/h 76 % 0 mm 468 W/m2
14:30 -11.3 °C -13.6 °C 34520.3 hPa South 23.3 km/h 46.7 km/h 76 % 0 mm 392 W/m2
14:35 -11.3 °C -13.6 °C 34520.3 hPa SSW 25.9 km/h 46.7 km/h 76 % 0 mm 512 W/m2
14:40 -11.3 °C -13.6 °C 34520.3 hPa South 23.3 km/h 46.7 km/h 76 % 0 mm 554 W/m2
14:45 -11.2 °C -13.6 °C 34520.3 hPa South 25.9 km/h 46.7 km/h 75 % 0 mm 519 W/m2
14:50 -11.3 °C -13.6 °C 34520.3 hPa South 20.8 km/h 46.7 km/h 76 % 0 mm 482 W/m2
14:55 -11.2 °C -13.5 °C 34520.3 hPa SSE 23.3 km/h 46.7 km/h 76 % 0 mm 503 W/m2
15:00 -11.2 °C -13.6 °C 34520.3 hPa South 20.8 km/h 46.7 km/h 75 % 0 mm 445 W/m2
15:05 -11.3 °C -13.7 °C 34520.3 hPa South 28.5 km/h 46.7 km/h 75 % 0 mm 476 W/m2
15:10 -11.2 °C -13.5 °C 34510.1 hPa South 38.8 km/h 41.4 km/h 76 % 0 mm 512 W/m2
15:15 -11.3 °C -13.8 °C 34510.1 hPa South 38.8 km/h 46.7 km/h 74 % 0 mm 431 W/m2
15:20 -11.5 °C -13.9 °C 34510.1 hPa SSW 20.8 km/h 49.2 km/h 74 % 0 mm 394 W/m2
15:25 -11.5 °C -14.1 °C 34510.1 hPa SSW 18.2 km/h 49.2 km/h 73 % 0 mm 427 W/m2
15:30 -11.5 °C -14.1 °C 34510.1 hPa SSE 15.6 km/h 44.1 km/h 73 % 0 mm 362 W/m2
15:35 -11.4 °C -13.9 °C 34496.6 hPa SSW 12.9 km/h 51.8 km/h 74 % 0 mm 413 W/m2
15:40 -11.5 °C -13.9 °C 34496.6 hPa SSW 23.3 km/h 51.8 km/h 74 % 0 mm 338 W/m2
15:45 -11.7 °C -14.2 °C 34496.6 hPa SW 20.8 km/h 49.2 km/h 74 % 0 mm 374 W/m2
15:55 -11.4 °C -14.2 °C 34486.4 hPa South 31.1 km/h 46.7 km/h 71 % 0 mm 410 W/m2
16:00 -11.6 °C -14.3 °C 34486.4 hPa SSW 10.3 km/h 51.8 km/h 72 % 0 mm 410 W/m2
16:05 -11.6 °C -14.3 °C 34486.4 hPa SSW 15.6 km/h 51.8 km/h 72 % 0 mm 392 W/m2
16:10 -11.6 °C -14.3 °C 34486.4 hPa SSW 23.3 km/h 41.4 km/h 72 % 0 mm 304 W/m2
16:15 -11.6 °C -14.2 °C 34486.4 hPa SSW 33.6 km/h 36.2 km/h 72 % 0 mm 271 W/m2
16:25 -11.8 °C -14.4 °C 34486.4 hPa South 15.6 km/h 57 km/h 72 % 0 mm 316 W/m2
16:30 -11.8 °C -14.7 °C 34486.4 hPa South 20.8 km/h 57 km/h 70 % 0 mm 225 W/m2
16:40 -11.9 °C -14.5 °C 34486.4 hPa South 10.3 km/h 31.1 km/h 73 % 0 mm 174 W/m2
16:45 -12 °C -14.6 °C 34476.3 hPa South 18.2 km/h 31.1 km/h 73 % 0 mm 178 W/m2
16:50 -12.1 °C -14.8 °C 34486.4 hPa South 15.6 km/h 31.1 km/h 72 % 0 mm 167 W/m2
16:55 -12.1 °C -14.7 °C 34486.4 hPa South 7.7 km/h 31.1 km/h 73 % 0 mm 156 W/m2
17:00 -12.1 °C -14.6 °C 34486.4 hPa South 15.6 km/h 33.6 km/h 73 % 0 mm 151 W/m2
17:05 -12.1 °C -14.6 °C 34486.4 hPa SSW 15.6 km/h 33.6 km/h 74 % 0 mm 130 W/m2
17:10 -12.2 °C -14.6 °C 34486.4 hPa South 12.9 km/h 31.1 km/h 75 % 0 mm 121 W/m2
17:15 -12.2 °C -14.4 °C 34486.4 hPa WSW 7.7 km/h 33.6 km/h 76 % 0 mm 116 W/m2
17:25 -12.3 °C -14.5 °C 34486.4 hPa SSW 12.9 km/h 31.1 km/h 76 % 0 mm 104 W/m2
17:30 -12.3 °C -14.6 °C 34476.3 hPa South 15.6 km/h 31.1 km/h 76 % 0 mm 97 W/m2
17:35 -12.3 °C -14.5 °C 34476.3 hPa South 28.5 km/h 31.1 km/h 77 % 0 mm 91 W/m2
17:40 -12.4 °C -14.4 °C 34476.3 hPa SSW 20.8 km/h 31.1 km/h 78 % 0 mm 79 W/m2
17:45 -12.4 °C -14.6 °C 34476.3 hPa SSW 18.2 km/h 31.1 km/h 77 % 0 mm 70 W/m2
17:50 -12.5 °C -14.6 °C 34486.4 hPa SSW 12.9 km/h 31.1 km/h 77 % 0 mm 67 W/m2
17:55 -12.6 °C -14.7 °C 34486.4 hPa SW 7.7 km/h 28.5 km/h 77 % 0 mm 63 W/m2
18:00 -12.6 °C -14.6 °C 34486.4 hPa SSW 15.6 km/h 23.3 km/h 78 % 0 mm 58 W/m2
18:05 -12.6 °C -14.5 °C 34486.4 hPa South 10.3 km/h 25.9 km/h 79 % 0 mm 54 W/m2
18:10 -12.6 °C -14.6 °C 34486.4 hPa SSW 7.7 km/h 28.5 km/h 79 % 0 mm 51 W/m2
18:15 -12.7 °C -14.6 °C 34486.4 hPa SSW 10.3 km/h 31.1 km/h 79 % 0 mm 44 W/m2
18:20 -12.7 °C -14.6 °C 34486.4 hPa SSE 7.7 km/h 31.1 km/h 79 % 0 mm 37 W/m2
18:25 -12.7 °C -14.7 °C 34486.4 hPa SSW 20.8 km/h 31.1 km/h 79 % 0 mm 30 W/m2
18:30 -12.8 °C -14.7 °C 34476.3 hPa SSW 18.2 km/h 31.1 km/h 79 % 0 mm 23 W/m2
18:40 -12.9 °C -14.7 °C 34476.3 hPa SSW 18.2 km/h 25.9 km/h 80 % 0 mm 11 W/m2
18:45 -12.9 °C -14.7 °C 34476.3 hPa SW 18.2 km/h 25.9 km/h 81 % 0 mm 11 W/m2
18:55 -13 °C -14.6 °C 34476.3 hPa South 12.9 km/h 28.5 km/h 82 % 0 mm 0 W/m2
19:00 -13 °C -14.6 °C 34476.3 hPa SSW 15.6 km/h 28.5 km/h 82 % 0 mm 0 W/m2
19:05 -13.1 °C -14.7 °C 34476.3 hPa SSW 12.9 km/h 28.5 km/h 82 % 0 mm 0 W/m2
19:10 -13.1 °C -14.6 °C 34476.3 hPa South 10.3 km/h 28.5 km/h 83 % 0 mm 0 W/m2
19:15 -13.2 °C -14.7 °C 34462.7 hPa SSE 20.8 km/h 28.5 km/h 83 % 0 mm 0 W/m2
19:20 -13.2 °C -14.7 °C 34462.7 hPa South 15.6 km/h 28.5 km/h 83 % 0 mm 0 W/m2
19:25 -13.2 °C -14.7 °C 34462.7 hPa South 12.9 km/h 28.5 km/h 83 % 0 mm 0 W/m2
19:30 -13.2 °C -14.7 °C 34462.7 hPa SSE 12.9 km/h 23.3 km/h 83 % 0 mm 0 W/m2
19:40 -13.3 °C -14.7 °C 34462.7 hPa SSW 20.8 km/h 23.3 km/h 84 % 0 mm 0 W/m2
19:45 -13.3 °C -14.7 °C 34462.7 hPa SSW 15.6 km/h 23.3 km/h 84 % 0 mm 0 W/m2
19:50 -13.4 °C -14.7 °C 34462.7 hPa SSW 10.3 km/h 25.9 km/h 85 % 0 mm 0 W/m2
19:55 -13.3 °C -14.7 °C 34462.7 hPa South 12.9 km/h 33.6 km/h 85 % 0 mm 0 W/m2
20:00 -13.3 °C -14.7 °C 34462.7 hPa SSW 10.3 km/h 33.6 km/h 85 % 0 mm 0 W/m2
20:10 -13.3 °C -14.6 °C 34462.7 hPa SSW 7.7 km/h 25.9 km/h 86 % 0 mm 0 W/m2
20:15 -13.4 °C -14.6 °C 34462.7 hPa SSE 10.3 km/h 25.9 km/h 86 % 0 mm 0 W/m2
20:25 -13.4 °C -14.5 °C 34462.7 hPa SSW 7.7 km/h 20.8 km/h 87 % 0 mm 0 W/m2
20:30 -13.4 °C -14.4 °C 34462.7 hPa SSW 18.2 km/h 18.2 km/h 88 % 0 mm 0 W/m2
20:35 -13.4 °C -14.4 °C 34462.7 hPa SW 2.6 km/h 18.2 km/h 88 % 0 mm 0 W/m2
20:40 -13.4 °C -14.4 °C 34462.7 hPa Calm   18.2 km/h 89 % 0 mm 0 W/m2
20:45 -13.4 °C -14.4 °C 34462.7 hPa SSW 5.1 km/h 15.6 km/h 89 % 0 mm 0 W/m2
20:50 -13.4 °C -14.3 °C 34462.7 hPa SSW 10.3 km/h 12.9 km/h 89 % 0 mm 0 W/m2
20:55 -13.3 °C -14.2 °C 34462.7 hPa South 7.7 km/h 20.8 km/h 89 % 0 mm 0 W/m2
21:00 -13.2 °C -14.1 °C 34462.7 hPa South 7.7 km/h 20.8 km/h 90 % 0 mm 0 W/m2
21:10 -13.2 °C -14.1 °C 34462.7 hPa SSW 7.7 km/h 18.2 km/h 89 % 0 mm 0 W/m2
21:15 -13.2 °C -14.1 °C 34452.6 hPa SSW 12.9 km/h 20.8 km/h 89 % 0 mm 0 W/m2
21:20 -13.1 °C -14.1 °C 34452.6 hPa South 12.9 km/h 20.8 km/h 89 % 0 mm 0 W/m2
21:25 -13.1 °C -14.1 °C 34452.6 hPa South 10.3 km/h 20.8 km/h 89 % 0 mm 0 W/m2
21:30 -13.1 °C -14.1 °C 34452.6 hPa SSW 5.1 km/h 20.8 km/h 88 % 0 mm 0 W/m2
21:35 -13 °C -14.1 °C 34452.6 hPa SSE 12.9 km/h 23.3 km/h 88 % 0 mm 0 W/m2
21:40 -13 °C -14.1 °C 34462.7 hPa South 7.7 km/h 23.3 km/h 88 % 0 mm 0 W/m2
21:45 -12.9 °C -14 °C 34452.6 hPa SW 18.2 km/h 23.3 km/h 88 % 0 mm 0 W/m2
21:55 -12.8 °C -13.9 °C 34452.6 hPa South 7.7 km/h 28.5 km/h 87 % 0 mm 0 W/m2
22:00 -12.7 °C -13.9 °C 34452.6 hPa SSW 10.3 km/h 31.1 km/h 87 % 0 mm 0 W/m2
22:10 -12.7 °C -13.8 °C 34452.6 hPa SW 18.2 km/h 31.1 km/h 87 % 0 mm 0 W/m2
22:15 -12.7 °C -13.8 °C 34442.4 hPa SSW 12.9 km/h 31.1 km/h 87 % 0 mm 0 W/m2
22:20 -12.7 °C -13.8 °C 34442.4 hPa SSW 15.6 km/h 28.5 km/h 87 % 0 mm 0 W/m2
22:25 -12.7 °C -13.8 °C 34442.4 hPa SSW 18.2 km/h 28.5 km/h 87 % 0 mm 0 W/m2
22:30 -12.7 °C -13.8 °C 34442.4 hPa SSW 10.3 km/h 28.5 km/h 87 % 0 mm 0 W/m2
22:40 -12.7 °C -13.8 °C 34442.4 hPa SSW 15.6 km/h 33.6 km/h 87 % 0 mm 0 W/m2
22:45 -12.7 °C -13.8 °C 34428.8 hPa SSW 10.3 km/h 31.1 km/h 87 % 0 mm 0 W/m2
22:50 -12.7 °C -13.8 °C 34428.8 hPa South 15.6 km/h 31.1 km/h 88 % 0 mm 0 W/m2
22:55 -12.7 °C -13.8 °C 34428.8 hPa SSW 12.9 km/h 28.5 km/h 88 % 0 mm 0 W/m2
23:00 -12.7 °C -13.8 °C 34428.8 hPa SSW 31.1 km/h 31.1 km/h 88 % 0 mm 0 W/m2
23:10 -12.8 °C -13.7 °C 34428.8 hPa SSW 2.6 km/h 31.1 km/h 89 % 0 mm 0 W/m2
23:15 -12.7 °C -13.7 °C 34442.4 hPa WSW 7.7 km/h 28.5 km/h 89 % 0 mm 0 W/m2
23:20 -12.7 °C -13.7 °C 34442.4 hPa SW 12.9 km/h 28.5 km/h 89 % 0 mm 0 W/m2
23:25 -12.6 °C -13.6 °C 34442.4 hPa SW 18.2 km/h 28.5 km/h 89 % 0 mm 0 W/m2
23:30 -12.6 °C -13.6 °C 34428.8 hPa SSW 12.9 km/h 28.5 km/h 89 % 0 mm 0 W/m2
23:35 -12.6 °C -13.5 °C 34442.4 hPa WSW 12.9 km/h 23.3 km/h 89 % 0 mm 0 W/m2
23:40 -12.6 °C -13.5 °C 34428.8 hPa SSW 10.3 km/h 25.9 km/h 89 % 0 mm 0 W/m2
23:45 -12.5 °C -13.4 °C 34428.8 hPa SW 12.9 km/h 28.5 km/h 89 % 0 mm 0 W/m2
23:50 -12.4 °C -13.4 °C 34428.8 hPa West 15.6 km/h 28.5 km/h 89 % 0 mm 0 W/m2
23:55 -12.4 °C -13.4 °C 34428.8 hPa WSW 15.6 km/h 25.9 km/h 89 % 0 mm 0 W/m2
Avec l'autorisation de Weather Underground - 1.5 mb